sensor_id;sensor_type;location;lat;lon;timestamp;P1;durP1;ratioP1;P2;durP2;ratioP2
14139;SDS011;7150;53.514;9.988;2023-05-07T00:01:17;8.20;;;6.23;;
14139;SDS011;7150;53.514;9.988;2023-05-07T00:03:43;8.97;;;6.57;;
14139;SDS011;7150;53.514;9.988;2023-05-07T00:06:09;9.37;;;6.67;;
14139;SDS011;7150;53.514;9.988;2023-05-07T00:08:37;9.83;;;6.70;;
14139;SDS011;7150;53.514;9.988;2023-05-07T00:11:03;7.83;;;6.17;;
14139;SDS011;7150;53.514;9.988;2023-05-07T00:13:28;10.53;;;7.47;;
14139;SDS011;7150;53.514;9.988;2023-05-07T00:16:00;9.30;;;6.70;;
14139;SDS011;7150;53.514;9.988;2023-05-07T00:18:26;9.30;;;6.57;;
14139;SDS011;7150;53.514;9.988;2023-05-07T00:20:52;10.43;;;6.90;;
14139;SDS011;7150;53.514;9.988;2023-05-07T00:23:17;7.33;;;6.17;;
14139;SDS011;7150;53.514;9.988;2023-05-07T00:25:43;8.93;;;6.67;;
14139;SDS011;7150;53.514;9.988;2023-05-07T00:28:08;10.40;;;6.43;;
14139;SDS011;7150;53.514;9.988;2023-05-07T00:30:34;9.27;;;6.20;;
14139;SDS011;7150;53.514;9.988;2023-05-07T00:32:59;8.77;;;5.70;;
14139;SDS011;7150;53.514;9.988;2023-05-07T00:35:25;8.20;;;5.90;;
14139;SDS011;7150;53.514;9.988;2023-05-07T00:37:50;8.83;;;6.30;;
14139;SDS011;7150;53.514;9.988;2023-05-07T00:40:16;8.23;;;5.30;;
14139;SDS011;7150;53.514;9.988;2023-05-07T00:42:41;6.77;;;4.80;;
14139;SDS011;7150;53.514;9.988;2023-05-07T00:45:11;7.47;;;6.00;;
14139;SDS011;7150;53.514;9.988;2023-05-07T00:47:40;7.00;;;5.20;;
14139;SDS011;7150;53.514;9.988;2023-05-07T00:50:07;8.10;;;5.60;;
14139;SDS011;7150;53.514;9.988;2023-05-07T00:52:34;7.97;;;5.27;;
14139;SDS011;7150;53.514;9.988;2023-05-07T00:55:02;7.07;;;5.03;;
14139;SDS011;7150;53.514;9.988;2023-05-07T00:57:32;7.47;;;5.20;;
14139;SDS011;7150;53.514;9.988;2023-05-07T01:00:01;8.37;;;4.90;;
14139;SDS011;7150;53.514;9.988;2023-05-07T01:02:29;6.87;;;5.07;;
14139;SDS011;7150;53.514;9.988;2023-05-07T01:04:54;8.00;;;5.17;;
14139;SDS011;7150;53.514;9.988;2023-05-07T01:07:21;8.80;;;5.43;;
14139;SDS011;7150;53.514;9.988;2023-05-07T01:09:47;8.47;;;5.87;;
14139;SDS011;7150;53.514;9.988;2023-05-07T01:12:13;6.87;;;4.43;;
14139;SDS011;7150;53.514;9.988;2023-05-07T01:18:00;8.17;;;5.17;;
14139;SDS011;7150;53.514;9.988;2023-05-07T01:20:26;6.43;;;4.90;;
14139;SDS011;7150;53.514;9.988;2023-05-07T01:22:53;7.30;;;5.20;;
14139;SDS011;7150;53.514;9.988;2023-05-07T01:25:19;6.00;;;4.90;;
14139;SDS011;7150;53.514;9.988;2023-05-07T01:27:45;9.03;;;5.27;;
14139;SDS011;7150;53.514;9.988;2023-05-07T01:30:11;7.87;;;5.37;;
14139;SDS011;7150;53.514;9.988;2023-05-07T01:32:42;6.70;;;5.17;;
14139;SDS011;7150;53.514;9.988;2023-05-07T01:35:19;6.43;;;4.53;;
14139;SDS011;7150;53.514;9.988;2023-05-07T01:37:47;6.10;;;5.07;;
14139;SDS011;7150;53.514;9.988;2023-05-07T01:40:14;6.57;;;4.77;;
14139;SDS011;7150;53.514;9.988;2023-05-07T01:42:40;6.97;;;4.93;;
14139;SDS011;7150;53.514;9.988;2023-05-07T01:45:07;5.07;;;4.37;;
14139;SDS011;7150;53.514;9.988;2023-05-07T01:47:33;8.60;;;4.90;;
14139;SDS011;7150;53.514;9.988;2023-05-07T01:50:00;9.83;;;5.67;;
14139;SDS011;7150;53.514;9.988;2023-05-07T01:52:27;6.23;;;4.63;;
14139;SDS011;7150;53.514;9.988;2023-05-07T01:54:52;6.93;;;4.57;;
14139;SDS011;7150;53.514;9.988;2023-05-07T01:57:18;6.13;;;4.80;;
14139;SDS011;7150;53.514;9.988;2023-05-07T01:59:43;6.97;;;4.40;;
14139;SDS011;7150;53.514;9.988;2023-05-07T02:02:09;5.73;;;4.23;;
14139;SDS011;7150;53.514;9.988;2023-05-07T02:04:34;6.93;;;5.03;;
14139;SDS011;7150;53.514;9.988;2023-05-07T02:07:00;5.87;;;4.87;;
14139;SDS011;7150;53.514;9.988;2023-05-07T02:09:25;6.70;;;5.00;;
14139;SDS011;7150;53.514;9.988;2023-05-07T02:11:51;6.33;;;4.50;;
14139;SDS011;7150;53.514;9.988;2023-05-07T02:14:16;6.93;;;5.50;;
14139;SDS011;7150;53.514;9.988;2023-05-07T02:16:42;6.53;;;4.60;;
14139;SDS011;7150;53.514;9.988;2023-05-07T02:19:07;7.70;;;4.77;;
14139;SDS011;7150;53.514;9.988;2023-05-07T02:21:33;7.90;;;5.20;;
14139;SDS011;7150;53.514;9.988;2023-05-07T02:23:58;7.73;;;5.23;;
14139;SDS011;7150;53.514;9.988;2023-05-07T02:26:24;7.93;;;5.07;;
14139;SDS011;7150;53.514;9.988;2023-05-07T02:28:50;5.67;;;4.70;;
14139;SDS011;7150;53.514;9.988;2023-05-07T02:31:16;6.90;;;5.03;;
14139;SDS011;7150;53.514;9.988;2023-05-07T02:33:42;7.20;;;4.93;;
14139;SDS011;7150;53.514;9.988;2023-05-07T02:36:10;7.07;;;5.40;;
14139;SDS011;7150;53.514;9.988;2023-05-07T02:38:36;6.33;;;4.70;;
14139;SDS011;7150;53.514;9.988;2023-05-07T02:41:02;6.83;;;4.50;;
14139;SDS011;7150;53.514;9.988;2023-05-07T02:43:28;6.17;;;5.07;;
14139;SDS011;7150;53.514;9.988;2023-05-07T02:46:00;5.90;;;4.57;;
14139;SDS011;7150;53.514;9.988;2023-05-07T02:48:26;6.70;;;5.17;;
14139;SDS011;7150;53.514;9.988;2023-05-07T02:50:52;7.47;;;5.30;;
14139;SDS011;7150;53.514;9.988;2023-05-07T02:53:17;7.00;;;5.17;;
14139;SDS011;7150;53.514;9.988;2023-05-07T02:55:43;6.00;;;4.47;;
14139;SDS011;7150;53.514;9.988;2023-05-07T02:58:08;7.73;;;6.03;;
14139;SDS011;7150;53.514;9.988;2023-05-07T03:00:34;7.03;;;5.43;;
14139;SDS011;7150;53.514;9.988;2023-05-07T03:02:59;8.67;;;5.70;;
14139;SDS011;7150;53.514;9.988;2023-05-07T03:05:25;8.23;;;5.17;;
14139;SDS011;7150;53.514;9.988;2023-05-07T03:07:50;7.10;;;5.50;;
14139;SDS011;7150;53.514;9.988;2023-05-07T03:10:16;7.43;;;4.93;;
14139;SDS011;7150;53.514;9.988;2023-05-07T03:12:41;7.43;;;5.13;;
14139;SDS011;7150;53.514;9.988;2023-05-07T03:15:07;9.13;;;6.07;;
14139;SDS011;7150;53.514;9.988;2023-05-07T03:17:33;8.73;;;5.67;;
14139;SDS011;7150;53.514;9.988;2023-05-07T03:19:59;8.07;;;5.23;;
14139;SDS011;7150;53.514;9.988;2023-05-07T03:22:24;9.13;;;6.03;;
14139;SDS011;7150;53.514;9.988;2023-05-07T03:24:50;8.10;;;5.60;;
14139;SDS011;7150;53.514;9.988;2023-05-07T03:27:15;8.43;;;6.00;;
14139;SDS011;7150;53.514;9.988;2023-05-07T03:29:41;8.30;;;6.30;;
14139;SDS011;7150;53.514;9.988;2023-05-07T03:32:06;10.67;;;6.17;;
14139;SDS011;7150;53.514;9.988;2023-05-07T03:34:32;9.37;;;6.13;;
14139;SDS011;7150;53.514;9.988;2023-05-07T03:36:57;7.87;;;5.70;;
14139;SDS011;7150;53.514;9.988;2023-05-07T03:39:23;9.00;;;6.23;;
14139;SDS011;7150;53.514;9.988;2023-05-07T03:41:48;8.47;;;6.37;;
14139;SDS011;7150;53.514;9.988;2023-05-07T03:44:14;9.27;;;6.70;;
14139;SDS011;7150;53.514;9.988;2023-05-07T03:46:39;9.37;;;6.23;;
14139;SDS011;7150;53.514;9.988;2023-05-07T03:49:05;9.37;;;6.10;;
14139;SDS011;7150;53.514;9.988;2023-05-07T03:51:30;9.87;;;6.40;;
14139;SDS011;7150;53.514;9.988;2023-05-07T03:53:56;9.90;;;6.50;;
14139;SDS011;7150;53.514;9.988;2023-05-07T03:56:22;8.90;;;6.60;;
14139;SDS011;7150;53.514;9.988;2023-05-07T03:58:48;8.70;;;6.47;;
14139;SDS011;7150;53.514;9.988;2023-05-07T04:01:13;9.70;;;6.77;;
14139;SDS011;7150;53.514;9.988;2023-05-07T04:03:39;9.00;;;6.60;;
14139;SDS011;7150;53.514;9.988;2023-05-07T04:06:04;8.70;;;5.73;;
14139;SDS011;7150;53.514;9.988;2023-05-07T04:08:30;8.30;;;6.30;;
14139;SDS011;7150;53.514;9.988;2023-05-07T04:10:56;8.60;;;5.83;;
14139;SDS011;7150;53.514;9.988;2023-05-07T04:13:22;6.87;;;5.47;;
14139;SDS011;7150;53.514;9.988;2023-05-07T04:15:48;7.80;;;5.90;;
14139;SDS011;7150;53.514;9.988;2023-05-07T04:18:14;7.13;;;5.37;;
14139;SDS011;7150;53.514;9.988;2023-05-07T04:20:39;8.33;;;6.50;;
14139;SDS011;7150;53.514;9.988;2023-05-07T04:23:05;8.73;;;6.13;;
14139;SDS011;7150;53.514;9.988;2023-05-07T04:25:30;7.00;;;5.40;;
14139;SDS011;7150;53.514;9.988;2023-05-07T04:27:56;6.97;;;5.43;;
14139;SDS011;7150;53.514;9.988;2023-05-07T04:30:22;7.43;;;5.60;;
14139;SDS011;7150;53.514;9.988;2023-05-07T04:32:47;9.30;;;6.13;;
14139;SDS011;7150;53.514;9.988;2023-05-07T04:35:13;7.10;;;5.33;;
14139;SDS011;7150;53.514;9.988;2023-05-07T04:37:39;8.83;;;6.03;;
14139;SDS011;7150;53.514;9.988;2023-05-07T04:40:05;9.20;;;6.20;;
14139;SDS011;7150;53.514;9.988;2023-05-07T04:42:32;8.17;;;5.50;;
14139;SDS011;7150;53.514;9.988;2023-05-07T04:44:57;8.80;;;5.93;;
14139;SDS011;7150;53.514;9.988;2023-05-07T04:47:23;8.97;;;5.60;;
14139;SDS011;7150;53.514;9.988;2023-05-07T04:49:48;8.67;;;5.90;;
14139;SDS011;7150;53.514;9.988;2023-05-07T04:52:14;8.00;;;6.17;;
14139;SDS011;7150;53.514;9.988;2023-05-07T04:54:40;6.77;;;5.70;;
14139;SDS011;7150;53.514;9.988;2023-05-07T04:57:05;9.60;;;6.27;;
14139;SDS011;7150;53.514;9.988;2023-05-07T04:59:32;8.17;;;5.67;;
14139;SDS011;7150;53.514;9.988;2023-05-07T05:01:57;8.97;;;5.97;;
14139;SDS011;7150;53.514;9.988;2023-05-07T05:04:23;8.03;;;6.03;;
14139;SDS011;7150;53.514;9.988;2023-05-07T05:06:49;8.37;;;6.43;;
14139;SDS011;7150;53.514;9.988;2023-05-07T05:09:14;8.97;;;6.10;;
14139;SDS011;7150;53.514;9.988;2023-05-07T05:11:40;7.27;;;5.67;;
14139;SDS011;7150;53.514;9.988;2023-05-07T05:14:06;8.57;;;5.80;;
14139;SDS011;7150;53.514;9.988;2023-05-07T05:16:31;8.03;;;5.50;;
14139;SDS011;7150;53.514;9.988;2023-05-07T05:18:57;9.47;;;6.23;;
14139;SDS011;7150;53.514;9.988;2023-05-07T05:21:23;8.23;;;5.40;;
14139;SDS011;7150;53.514;9.988;2023-05-07T05:23:48;7.60;;;5.63;;
14139;SDS011;7150;53.514;9.988;2023-05-07T05:26:14;8.43;;;6.13;;
14139;SDS011;7150;53.514;9.988;2023-05-07T05:28:39;7.53;;;5.43;;
14139;SDS011;7150;53.514;9.988;2023-05-07T05:31:05;7.57;;;5.70;;
14139;SDS011;7150;53.514;9.988;2023-05-07T05:33:31;7.33;;;5.40;;
14139;SDS011;7150;53.514;9.988;2023-05-07T05:35:56;7.17;;;5.20;;
14139;SDS011;7150;53.514;9.988;2023-05-07T05:38:21;7.10;;;5.17;;
14139;SDS011;7150;53.514;9.988;2023-05-07T05:40:47;7.97;;;5.47;;
14139;SDS011;7150;53.514;9.988;2023-05-07T05:43:13;9.07;;;5.73;;
14139;SDS011;7150;53.514;9.988;2023-05-07T05:45:39;7.53;;;5.57;;
14139;SDS011;7150;53.514;9.988;2023-05-07T05:48:05;7.30;;;5.90;;
14139;SDS011;7150;53.514;9.988;2023-05-07T05:50:31;8.47;;;5.87;;
14139;SDS011;7150;53.514;9.988;2023-05-07T05:52:56;7.80;;;5.67;;
14139;SDS011;7150;53.514;9.988;2023-05-07T05:55:22;7.93;;;5.40;;
14139;SDS011;7150;53.514;9.988;2023-05-07T05:57:48;8.33;;;6.00;;
14139;SDS011;7150;53.514;9.988;2023-05-07T06:00:15;7.93;;;5.70;;
14139;SDS011;7150;53.514;9.988;2023-05-07T06:02:41;8.60;;;5.60;;
14139;SDS011;7150;53.514;9.988;2023-05-07T06:05:07;9.63;;;6.10;;
14139;SDS011;7150;53.514;9.988;2023-05-07T06:07:33;7.60;;;5.63;;
14139;SDS011;7150;53.514;9.988;2023-05-07T06:09:59;9.03;;;6.07;;
14139;SDS011;7150;53.514;9.988;2023-05-07T06:12:25;7.53;;;5.47;;
14139;SDS011;7150;53.514;9.988;2023-05-07T06:14:51;6.47;;;4.83;;
14139;SDS011;7150;53.514;9.988;2023-05-07T06:17:17;7.10;;;5.53;;
14139;SDS011;7150;53.514;9.988;2023-05-07T06:19:42;8.83;;;6.50;;
14139;SDS011;7150;53.514;9.988;2023-05-07T06:22:08;8.73;;;6.17;;
14139;SDS011;7150;53.514;9.988;2023-05-07T06:24:33;7.87;;;5.73;;
14139;SDS011;7150;53.514;9.988;2023-05-07T06:26:59;7.57;;;5.90;;
14139;SDS011;7150;53.514;9.988;2023-05-07T06:29:24;8.67;;;6.03;;
14139;SDS011;7150;53.514;9.988;2023-05-07T06:31:51;8.83;;;5.63;;
14139;SDS011;7150;53.514;9.988;2023-05-07T06:34:17;7.73;;;5.83;;
14139;SDS011;7150;53.514;9.988;2023-05-07T06:36:43;7.33;;;5.60;;
14139;SDS011;7150;53.514;9.988;2023-05-07T06:39:08;6.63;;;5.27;;
14139;SDS011;7150;53.514;9.988;2023-05-07T06:41:34;7.97;;;5.33;;
14139;SDS011;7150;53.514;9.988;2023-05-07T06:44:00;6.70;;;4.83;;
14139;SDS011;7150;53.514;9.988;2023-05-07T06:46:29;8.10;;;5.47;;
14139;SDS011;7150;53.514;9.988;2023-05-07T06:48:55;7.93;;;5.50;;
14139;SDS011;7150;53.514;9.988;2023-05-07T06:51:21;8.87;;;4.83;;
14139;SDS011;7150;53.514;9.988;2023-05-07T06:53:47;7.20;;;5.50;;
14139;SDS011;7150;53.514;9.988;2023-05-07T06:56:13;7.30;;;4.90;;
14139;SDS011;7150;53.514;9.988;2023-05-07T06:58:38;6.97;;;5.50;;
14139;SDS011;7150;53.514;9.988;2023-05-07T07:01:04;7.63;;;5.10;;
14139;SDS011;7150;53.514;9.988;2023-05-07T07:03:29;8.40;;;5.47;;
14139;SDS011;7150;53.514;9.988;2023-05-07T07:05:55;7.23;;;5.27;;
14139;SDS011;7150;53.514;9.988;2023-05-07T07:08:21;7.03;;;5.37;;
14139;SDS011;7150;53.514;9.988;2023-05-07T07:10:47;7.60;;;5.57;;
14139;SDS011;7150;53.514;9.988;2023-05-07T07:13:13;9.03;;;6.03;;
14139;SDS011;7150;53.514;9.988;2023-05-07T07:15:38;9.13;;;5.47;;
14139;SDS011;7150;53.514;9.988;2023-05-07T07:18:05;7.10;;;5.30;;
14139;SDS011;7150;53.514;9.988;2023-05-07T07:20:31;6.83;;;5.20;;
14139;SDS011;7150;53.514;9.988;2023-05-07T07:22:56;6.27;;;4.80;;
14139;SDS011;7150;53.514;9.988;2023-05-07T07:25:22;6.20;;;4.53;;
14139;SDS011;7150;53.514;9.988;2023-05-07T07:27:48;6.67;;;4.63;;
14139;SDS011;7150;53.514;9.988;2023-05-07T07:30:14;6.70;;;4.93;;
14139;SDS011;7150;53.514;9.988;2023-05-07T07:32:40;6.83;;;4.43;;
14139;SDS011;7150;53.514;9.988;2023-05-07T07:35:06;6.63;;;4.53;;
14139;SDS011;7150;53.514;9.988;2023-05-07T07:37:31;7.40;;;4.40;;
14139;SDS011;7150;53.514;9.988;2023-05-07T07:39:57;6.13;;;4.13;;
14139;SDS011;7150;53.514;9.988;2023-05-07T07:42:22;6.77;;;4.43;;
14139;SDS011;7150;53.514;9.988;2023-05-07T07:44:48;5.33;;;4.37;;
14139;SDS011;7150;53.514;9.988;2023-05-07T07:47:13;6.77;;;3.97;;
14139;SDS011;7150;53.514;9.988;2023-05-07T07:49:39;8.90;;;4.40;;
14139;SDS011;7150;53.514;9.988;2023-05-07T07:52:05;6.47;;;4.57;;
14139;SDS011;7150;53.514;9.988;2023-05-07T07:54:30;6.03;;;4.40;;
14139;SDS011;7150;53.514;9.988;2023-05-07T07:56:55;5.93;;;4.43;;
14139;SDS011;7150;53.514;9.988;2023-05-07T07:59:21;6.70;;;4.50;;
14139;SDS011;7150;53.514;9.988;2023-05-07T08:01:46;6.87;;;4.83;;
14139;SDS011;7150;53.514;9.988;2023-05-07T08:04:15;7.13;;;4.20;;
14139;SDS011;7150;53.514;9.988;2023-05-07T08:06:40;6.13;;;3.60;;
14139;SDS011;7150;53.514;9.988;2023-05-07T08:09:06;6.43;;;4.23;;
14139;SDS011;7150;53.514;9.988;2023-05-07T08:11:31;5.63;;;4.10;;
14139;SDS011;7150;53.514;9.988;2023-05-07T08:13:57;6.60;;;4.27;;
14139;SDS011;7150;53.514;9.988;2023-05-07T08:16:22;4.93;;;3.80;;
14139;SDS011;7150;53.514;9.988;2023-05-07T08:18:48;5.53;;;4.10;;
14139;SDS011;7150;53.514;9.988;2023-05-07T08:21:13;6.17;;;4.63;;
14139;SDS011;7150;53.514;9.988;2023-05-07T08:23:39;5.87;;;4.10;;
14139;SDS011;7150;53.514;9.988;2023-05-07T08:26:05;6.97;;;3.90;;
14139;SDS011;7150;53.514;9.988;2023-05-07T08:28:30;5.80;;;4.23;;
14139;SDS011;7150;53.514;9.988;2023-05-07T08:30:56;6.23;;;4.53;;
14139;SDS011;7150;53.514;9.988;2023-05-07T08:33:21;3.93;;;3.50;;
14139;SDS011;7150;53.514;9.988;2023-05-07T08:35:47;6.60;;;3.80;;
14139;SDS011;7150;53.514;9.988;2023-05-07T08:38:13;5.70;;;4.07;;
14139;SDS011;7150;53.514;9.988;2023-05-07T08:40:38;4.73;;;3.67;;
14139;SDS011;7150;53.514;9.988;2023-05-07T08:43:06;4.77;;;3.60;;
14139;SDS011;7150;53.514;9.988;2023-05-07T08:45:32;4.40;;;3.50;;
14139;SDS011;7150;53.514;9.988;2023-05-07T08:47:59;5.40;;;4.13;;
14139;SDS011;7150;53.514;9.988;2023-05-07T08:50:27;8.10;;;3.70;;
14139;SDS011;7150;53.514;9.988;2023-05-07T08:52:53;5.53;;;4.23;;
14139;SDS011;7150;53.514;9.988;2023-05-07T08:55:21;5.87;;;3.67;;
14139;SDS011;7150;53.514;9.988;2023-05-07T08:57:47;5.70;;;4.70;;
14139;SDS011;7150;53.514;9.988;2023-05-07T09:00:13;6.13;;;4.53;;
14139;SDS011;7150;53.514;9.988;2023-05-07T09:02:39;6.40;;;4.40;;
14139;SDS011;7150;53.514;9.988;2023-05-07T09:05:04;5.93;;;4.40;;
14139;SDS011;7150;53.514;9.988;2023-05-07T09:07:30;6.03;;;4.47;;
14139;SDS011;7150;53.514;9.988;2023-05-07T09:09:56;5.80;;;4.10;;
14139;SDS011;7150;53.514;9.988;2023-05-07T09:12:22;6.13;;;4.60;;
14139;SDS011;7150;53.514;9.988;2023-05-07T09:14:48;5.23;;;3.90;;
14139;SDS011;7150;53.514;9.988;2023-05-07T09:17:17;5.57;;;4.10;;
14139;SDS011;7150;53.514;9.988;2023-05-07T09:19:43;5.03;;;4.40;;
14139;SDS011;7150;53.514;9.988;2023-05-07T09:22:10;5.83;;;4.20;;
14139;SDS011;7150;53.514;9.988;2023-05-07T09:24:36;6.50;;;3.80;;
14139;SDS011;7150;53.514;9.988;2023-05-07T09:27:03;4.80;;;4.23;;
14139;SDS011;7150;53.514;9.988;2023-05-07T09:29:29;5.60;;;3.83;;
14139;SDS011;7150;53.514;9.988;2023-05-07T09:32:00;7.60;;;4.43;;
14139;SDS011;7150;53.514;9.988;2023-05-07T09:34:26;5.00;;;4.13;;
14139;SDS011;7150;53.514;9.988;2023-05-07T09:36:52;6.23;;;3.83;;
14139;SDS011;7150;53.514;9.988;2023-05-07T09:39:18;5.53;;;4.10;;
14139;SDS011;7150;53.514;9.988;2023-05-07T09:41:45;5.83;;;4.17;;
14139;SDS011;7150;53.514;9.988;2023-05-07T09:44:11;4.33;;;3.67;;
14139;SDS011;7150;53.514;9.988;2023-05-07T09:46:38;5.60;;;4.00;;
14139;SDS011;7150;53.514;9.988;2023-05-07T09:49:07;4.70;;;3.70;;
14139;SDS011;7150;53.514;9.988;2023-05-07T09:51:43;5.00;;;4.00;;
14139;SDS011;7150;53.514;9.988;2023-05-07T09:54:16;4.43;;;3.77;;
14139;SDS011;7150;53.514;9.988;2023-05-07T09:56:43;5.60;;;3.47;;
14139;SDS011;7150;53.514;9.988;2023-05-07T09:59:13;4.33;;;3.50;;
14139;SDS011;7150;53.514;9.988;2023-05-07T10:01:41;4.87;;;3.97;;
14139;SDS011;7150;53.514;9.988;2023-05-07T10:04:07;7.07;;;4.30;;
14139;SDS011;7150;53.514;9.988;2023-05-07T10:06:34;6.13;;;3.60;;
14139;SDS011;7150;53.514;9.988;2023-05-07T10:09:00;5.43;;;3.90;;
14139;SDS011;7150;53.514;9.988;2023-05-07T10:11:27;7.30;;;4.30;;
14139;SDS011;7150;53.514;9.988;2023-05-07T10:13:53;5.83;;;4.40;;
14139;SDS011;7150;53.514;9.988;2023-05-07T10:16:18;5.80;;;4.30;;
14139;SDS011;7150;53.514;9.988;2023-05-07T10:18:45;6.33;;;4.00;;
14139;SDS011;7150;53.514;9.988;2023-05-07T10:21:16;5.37;;;4.00;;
14139;SDS011;7150;53.514;9.988;2023-05-07T10:23:50;5.53;;;3.80;;
14139;SDS011;7150;53.514;9.988;2023-05-07T10:26:20;5.77;;;3.70;;
14139;SDS011;7150;53.514;9.988;2023-05-07T10:28:49;4.17;;;3.50;;
14139;SDS011;7150;53.514;9.988;2023-05-07T10:31:34;5.23;;;3.83;;
14139;SDS011;7150;53.514;9.988;2023-05-07T10:34:19;7.23;;;4.10;;
14139;SDS011;7150;53.514;9.988;2023-05-07T10:36:49;4.33;;;3.43;;
14139;SDS011;7150;53.514;9.988;2023-05-07T10:39:15;7.57;;;4.00;;
14139;SDS011;7150;53.514;9.988;2023-05-07T10:41:41;5.87;;;3.80;;
14139;SDS011;7150;53.514;9.988;2023-05-07T10:44:06;4.83;;;3.33;;
14139;SDS011;7150;53.514;9.988;2023-05-07T10:46:32;5.67;;;4.13;;
14139;SDS011;7150;53.514;9.988;2023-05-07T10:51:25;4.93;;;3.50;;
14139;SDS011;7150;53.514;9.988;2023-05-07T10:56:36;4.87;;;3.23;;
14139;SDS011;7150;53.514;9.988;2023-05-07T11:01:49;4.67;;;3.20;;
14139;SDS011;7150;53.514;9.988;2023-05-07T11:04:22;4.03;;;3.40;;
14139;SDS011;7150;53.514;9.988;2023-05-07T11:15:00;7.07;;;3.93;;
14139;SDS011;7150;53.514;9.988;2023-05-07T11:17:27;5.27;;;4.10;;
14139;SDS011;7150;53.514;9.988;2023-05-07T11:19:56;5.60;;;3.73;;
14139;SDS011;7150;53.514;9.988;2023-05-07T11:25:01;5.63;;;4.30;;
14139;SDS011;7150;53.514;9.988;2023-05-07T11:27:28;6.50;;;3.60;;
14139;SDS011;7150;53.514;9.988;2023-05-07T11:29:54;4.37;;;3.30;;
14139;SDS011;7150;53.514;9.988;2023-05-07T11:32:23;3.67;;;2.93;;
14139;SDS011;7150;53.514;9.988;2023-05-07T11:34:52;4.13;;;3.67;;
14139;SDS011;7150;53.514;9.988;2023-05-07T11:37:19;4.63;;;3.90;;
14139;SDS011;7150;53.514;9.988;2023-05-07T11:39:45;5.17;;;3.17;;
14139;SDS011;7150;53.514;9.988;2023-05-07T11:44:53;4.30;;;3.23;;
14139;SDS011;7150;53.514;9.988;2023-05-07T11:47:19;4.03;;;3.43;;
14139;SDS011;7150;53.514;9.988;2023-05-07T11:49:48;4.30;;;3.17;;
14139;SDS011;7150;53.514;9.988;2023-05-07T11:52:19;4.23;;;3.30;;
14139;SDS011;7150;53.514;9.988;2023-05-07T11:54:52;4.00;;;3.50;;
14139;SDS011;7150;53.514;9.988;2023-05-07T11:57:18;4.33;;;3.40;;
14139;SDS011;7150;53.514;9.988;2023-05-07T11:59:44;4.77;;;3.73;;
14139;SDS011;7150;53.514;9.988;2023-05-07T12:02:11;5.00;;;3.27;;
14139;SDS011;7150;53.514;9.988;2023-05-07T12:04:39;4.20;;;3.40;;
14139;SDS011;7150;53.514;9.988;2023-05-07T12:07:05;4.77;;;2.93;;
14139;SDS011;7150;53.514;9.988;2023-05-07T12:09:36;3.30;;;2.70;;
14139;SDS011;7150;53.514;9.988;2023-05-07T12:12:04;4.43;;;3.17;;
14139;SDS011;7150;53.514;9.988;2023-05-07T12:14:30;4.10;;;3.13;;
14139;SDS011;7150;53.514;9.988;2023-05-07T12:16:57;3.40;;;2.80;;
14139;SDS011;7150;53.514;9.988;2023-05-07T12:19:23;3.93;;;3.40;;
14139;SDS011;7150;53.514;9.988;2023-05-07T12:21:49;5.90;;;3.10;;
14139;SDS011;7150;53.514;9.988;2023-05-07T12:24:15;3.60;;;2.87;;
14139;SDS011;7150;53.514;9.988;2023-05-07T12:26:41;3.47;;;2.50;;
14139;SDS011;7150;53.514;9.988;2023-05-07T12:29:08;3.23;;;2.60;;
14139;SDS011;7150;53.514;9.988;2023-05-07T12:31:33;3.23;;;2.83;;
14139;SDS011;7150;53.514;9.988;2023-05-07T12:33:59;4.40;;;2.87;;
14139;SDS011;7150;53.514;9.988;2023-05-07T12:36:24;3.70;;;2.57;;
14139;SDS011;7150;53.514;9.988;2023-05-07T12:38:50;6.27;;;2.53;;
14139;SDS011;7150;53.514;9.988;2023-05-07T12:41:16;2.87;;;2.50;;
14139;SDS011;7150;53.514;9.988;2023-05-07T12:43:44;3.97;;;2.90;;
14139;SDS011;7150;53.514;9.988;2023-05-07T12:46:11;3.87;;;2.30;;
14139;SDS011;7150;53.514;9.988;2023-05-07T12:48:43;2.97;;;2.10;;
14139;SDS011;7150;53.514;9.988;2023-05-07T12:51:10;3.17;;;2.53;;
14139;SDS011;7150;53.514;9.988;2023-05-07T12:53:41;3.07;;;2.00;;
14139;SDS011;7150;53.514;9.988;2023-05-07T12:56:08;2.63;;;2.13;;
14139;SDS011;7150;53.514;9.988;2023-05-07T12:58:34;2.17;;;1.97;;
14139;SDS011;7150;53.514;9.988;2023-05-07T13:01:04;2.77;;;1.90;;
14139;SDS011;7150;53.514;9.988;2023-05-07T13:03:32;3.03;;;2.27;;
14139;SDS011;7150;53.514;9.988;2023-05-07T13:06:00;2.17;;;2.00;;
14139;SDS011;7150;53.514;9.988;2023-05-07T13:08:33;2.90;;;2.17;;
14139;SDS011;7150;53.514;9.988;2023-05-07T13:11:02;3.10;;;2.10;;
14139;SDS011;7150;53.514;9.988;2023-05-07T13:13:32;2.17;;;1.90;;
14139;SDS011;7150;53.514;9.988;2023-05-07T13:16:02;4.63;;;2.30;;
14139;SDS011;7150;53.514;9.988;2023-05-07T13:18:31;3.40;;;2.50;;
14139;SDS011;7150;53.514;9.988;2023-05-07T13:20:58;4.13;;;2.73;;
14139;SDS011;7150;53.514;9.988;2023-05-07T13:23:23;3.43;;;2.57;;
14139;SDS011;7150;53.514;9.988;2023-05-07T13:25:49;3.20;;;2.30;;
14139;SDS011;7150;53.514;9.988;2023-05-07T13:28:15;4.17;;;2.20;;
14139;SDS011;7150;53.514;9.988;2023-05-07T13:30:41;2.73;;;1.90;;
14139;SDS011;7150;53.514;9.988;2023-05-07T13:33:07;3.43;;;2.00;;
14139;SDS011;7150;53.514;9.988;2023-05-07T13:35:33;2.30;;;1.93;;
14139;SDS011;7150;53.514;9.988;2023-05-07T13:37:59;2.23;;;2.03;;
14139;SDS011;7150;53.514;9.988;2023-05-07T13:40:24;3.57;;;2.10;;
14139;SDS011;7150;53.514;9.988;2023-05-07T13:42:50;2.17;;;1.70;;
14139;SDS011;7150;53.514;9.988;2023-05-07T13:45:16;1.93;;;1.73;;
14139;SDS011;7150;53.514;9.988;2023-05-07T13:47:45;2.37;;;2.07;;
14139;SDS011;7150;53.514;9.988;2023-05-07T13:50:12;3.03;;;2.00;;
14139;SDS011;7150;53.514;9.988;2023-05-07T13:52:41;2.47;;;2.00;;
14139;SDS011;7150;53.514;9.988;2023-05-07T13:55:08;2.63;;;2.03;;
14139;SDS011;7150;53.514;9.988;2023-05-07T13:57:37;2.23;;;2.00;;
14139;SDS011;7150;53.514;9.988;2023-05-07T14:00:03;3.03;;;1.80;;
14139;SDS011;7150;53.514;9.988;2023-05-07T14:02:30;2.13;;;1.87;;
14139;SDS011;7150;53.514;9.988;2023-05-07T14:04:55;2.17;;;1.83;;
14139;SDS011;7150;53.514;9.988;2023-05-07T14:07:21;1.97;;;1.80;;
14139;SDS011;7150;53.514;9.988;2023-05-07T14:09:46;2.10;;;1.80;;
14139;SDS011;7150;53.514;9.988;2023-05-07T14:12:12;1.80;;;1.60;;
14139;SDS011;7150;53.514;9.988;2023-05-07T14:14:37;2.10;;;1.90;;
14139;SDS011;7150;53.514;9.988;2023-05-07T14:17:03;2.70;;;1.60;;
14139;SDS011;7150;53.514;9.988;2023-05-07T14:19:28;2.67;;;2.10;;
14139;SDS011;7150;53.514;9.988;2023-05-07T14:21:54;2.20;;;1.70;;
14139;SDS011;7150;53.514;9.988;2023-05-07T14:24:19;1.90;;;1.60;;
14139;SDS011;7150;53.514;9.988;2023-05-07T14:26:45;2.70;;;1.70;;
14139;SDS011;7150;53.514;9.988;2023-05-07T14:29:10;2.10;;;1.50;;
14139;SDS011;7150;53.514;9.988;2023-05-07T14:31:36;1.90;;;1.60;;
14139;SDS011;7150;53.514;9.988;2023-05-07T14:34:01;1.90;;;1.33;;
14139;SDS011;7150;53.514;9.988;2023-05-07T14:36:27;1.33;;;1.20;;
14139;SDS011;7150;53.514;9.988;2023-05-07T14:38:53;1.80;;;1.50;;
14139;SDS011;7150;53.514;9.988;2023-05-07T14:41:19;1.97;;;1.60;;
14139;SDS011;7150;53.514;9.988;2023-05-07T14:43:46;1.73;;;1.60;;
14139;SDS011;7150;53.514;9.988;2023-05-07T14:46:15;2.17;;;1.47;;
14139;SDS011;7150;53.514;9.988;2023-05-07T14:48:42;1.90;;;1.70;;
14139;SDS011;7150;53.514;9.988;2023-05-07T14:51:09;1.80;;;1.70;;
14139;SDS011;7150;53.514;9.988;2023-05-07T14:53:34;4.40;;;1.80;;
14139;SDS011;7150;53.514;9.988;2023-05-07T14:56:00;4.83;;;1.63;;
14139;SDS011;7150;53.514;9.988;2023-05-07T14:58:25;3.80;;;1.93;;
14139;SDS011;7150;53.514;9.988;2023-05-07T15:00:51;2.23;;;1.80;;
14139;SDS011;7150;53.514;9.988;2023-05-07T15:03:16;1.70;;;1.60;;
14139;SDS011;7150;53.514;9.988;2023-05-07T15:05:42;1.80;;;1.50;;
14139;SDS011;7150;53.514;9.988;2023-05-07T15:08:07;1.73;;;1.60;;
14139;SDS011;7150;53.514;9.988;2023-05-07T15:10:36;2.13;;;1.93;;
14139;SDS011;7150;53.514;9.988;2023-05-07T15:13:06;1.93;;;1.77;;
14139;SDS011;7150;53.514;9.988;2023-05-07T15:15:32;2.67;;;2.00;;
14139;SDS011;7150;53.514;9.988;2023-05-07T15:17:57;1.80;;;1.70;;
14139;SDS011;7150;53.514;9.988;2023-05-07T15:20:25;2.83;;;2.10;;